Time;durP1;ratioP1;P1;durP2;ratioP2;P2;SDS_P1;SDS_P2;PMS_P1;PMS_P2;Temp;Humidity;BMP_temperature;BMP_pressure;BME280_temperature;BME280_humidity;BME280_pressure;Samples;Min_cycle;Max_cycle;Signal;HPM_P1;HPM_P2
2023/05/04 00:01:35;;;;;;;8.80;4.77;;;;;;;13.59;53.77;99257.97;6952381;28;20276;-87
2023/05/04 00:04:57;;;;;;;6.50;5.53;;;;;;;13.59;53.26;99235.44;6953718;28;20310;-87
2023/05/04 00:08:19;;;;;;;6.30;4.70;;;;;;;13.13;54.91;99250.97;6954179;28;20351;-88
2023/05/04 00:11:42;;;;;;;6.57;5.30;;;;;;;12.79;55.12;99173.53;6951082;28;20281;-87
2023/05/04 00:15:05;;;;;;;5.20;4.70;;;;;;;13.57;54.30;99245.66;6950242;28;20312;-87
2023/05/04 00:18:27;;;;;;;5.67;5.00;;;;;;;13.30;54.31;99236.78;6949727;28;20272;-87
2023/05/04 00:21:48;;;;;;;8.93;4.83;;;;;;;13.31;54.36;99224.06;6950082;28;20322;-87
2023/05/04 00:25:10;;;;;;;6.97;4.97;;;;;;;12.95;54.54;99177.66;6950433;28;20368;-87
2023/05/04 00:28:33;;;;;;;7.13;5.07;;;;;;;12.95;54.13;99202.03;6949936;28;20289;-86
2023/05/04 00:31:54;;;;;;;6.23;5.70;;;;;;;12.86;55.40;99227.66;6949848;28;20273;-86
2023/05/04 00:35:16;;;;;;;5.60;4.97;;;;;;;12.85;55.67;99228.66;6950942;28;20223;-87
2023/05/04 00:38:47;;;;;;;5.93;4.77;;;;;;;13.15;55.35;99224.53;6950353;28;20337;-87
2023/05/04 00:42:09;;;;;;;7.63;5.23;;;;;;;13.03;55.16;99220.78;6949178;28;20219;-88
2023/05/04 00:45:32;;;;;;;7.60;5.60;;;;;;;12.75;55.64;99209.34;6947552;28;20309;-88
2023/05/04 00:48:53;;;;;;;6.07;5.30;;;;;;;12.89;54.92;99198.28;6947236;28;20211;-88
2023/05/04 00:52:15;;;;;;;5.40;4.90;;;;;;;12.23;55.58;99150.66;6946953;28;20212;-88
2023/05/04 00:55:38;;;;;;;9.37;5.87;;;;;;;12.02;56.96;99174.31;6946790;28;20371;-88
2023/05/04 00:58:59;;;;;;;8.03;5.60;;;;;;;12.07;56.62;99174.56;6947516;28;20223;-88
2023/05/04 01:02:22;;;;;;;5.67;5.07;;;;;;;12.49;56.62;99214.72;6947064;28;20364;-87
2023/05/04 01:05:53;;;;;;;10.67;5.83;;;;;;;12.27;56.96;99208.69;6945819;28;20254;-88
2023/05/04 01:09:22;;;;;;;6.47;5.73;;;;;;;12.37;57.29;99216.38;6947046;28;20250;-88
2023/05/04 01:12:47;;;;;;;6.10;5.47;;;;;;;12.28;56.89;99187.91;6946559;28;20282;-88
2023/05/04 01:16:09;;;;;;;6.33;5.63;;;;;;;12.61;56.11;99194.97;6947588;28;20366;-87
2023/05/04 01:19:32;;;;;;;7.13;6.43;;;;;;;12.43;56.46;99211.00;6947073;28;20277;-88
2023/05/04 01:22:55;;;;;;;6.57;5.30;;;;;;;11.72;56.90;99119.00;6946128;28;20226;-88
2023/05/04 01:26:19;;;;;;;7.17;6.47;;;;;;;12.04;57.13;99150.66;6947223;28;20277;-87
2023/05/04 01:29:45;;;;;;;6.60;5.63;;;;;;;12.18;57.53;99203.69;6957725;28;20211;-88
2023/05/04 01:33:07;;;;;;;6.03;5.40;;;;;;;12.23;56.80;99207.41;6959729;28;20268;-87
2023/05/04 01:36:28;;;;;;;7.03;5.93;;;;;;;12.11;57.65;99216.34;6951711;28;20305;-87
2023/05/04 01:39:51;;;;;;;6.10;5.50;;;;;;;12.14;56.29;99162.72;6951367;28;20195;-87
2023/05/04 01:43:13;;;;;;;7.93;6.17;;;;;;;11.75;56.80;99121.28;6952155;28;20235;-88
2023/05/04 01:46:34;;;;;;;7.07;5.47;;;;;;;12.62;55.89;99207.47;6964112;28;20234;-88
2023/05/04 01:49:56;;;;;;;9.63;5.63;;;;;;;12.35;55.03;99131.94;6963866;28;20210;-87
2023/05/04 01:53:18;;;;;;;6.87;5.77;;;;;;;12.66;55.12;99189.78;6959201;28;20203;-88
2023/05/04 01:56:41;;;;;;;7.07;6.30;;;;;;;12.16;55.90;99160.63;6950862;28;20226;-87
2023/05/04 02:00:02;;;;;;;7.90;6.53;;;;;;;12.44;56.13;99193.72;6951172;28;20680;-87
2023/05/04 02:03:24;;;;;;;8.73;6.83;;;;;;;12.15;57.41;99204.09;6955134;28;20238;-87
2023/05/04 02:06:46;;;;;;;8.67;7.40;;;;;;;11.66;56.98;99082.00;6977139;28;20264;-87
2023/05/04 02:10:09;;;;;;;9.67;6.60;;;;;;;11.97;56.49;99126.31;6977679;28;20191;-88
2023/05/04 02:13:32;;;;;;;7.93;7.13;;;;;;;11.89;57.92;99214.84;6977708;28;20238;-87
2023/05/04 02:16:53;;;;;;;8.10;7.30;;;;;;;12.14;58.24;99207.81;6977847;28;20317;-87
2023/05/04 02:20:15;;;;;;;7.40;6.63;;;;;;;12.41;57.36;99213.09;6977755;28;20297;-88
2023/05/04 02:23:36;;;;;;;10.00;7.53;;;;;;;12.74;56.36;99207.69;6977083;28;20318;-87
2023/05/04 02:26:58;;;;;;;8.50;7.03;;;;;;;12.63;55.48;99155.00;6977190;28;20320;-87
2023/05/04 02:30:21;;;;;;;8.70;7.80;;;;;;;11.89;56.06;99129.22;6977160;28;20217;-87
2023/05/04 02:33:42;;;;;;;10.07;7.37;;;;;;;12.73;56.55;99206.84;6976795;28;20283;-87
2023/05/04 02:37:04;;;;;;;9.57;7.10;;;;;;;13.03;54.85;99209.94;6977352;28;20318;-87
2023/05/04 02:40:26;;;;;;;8.90;7.47;;;;;;;12.52;55.70;99184.59;6977192;28;20213;-87
2023/05/04 02:43:47;;;;;;;8.63;7.10;;;;;;;12.76;55.56;99209.09;6976584;28;20647;-88
2023/05/04 02:47:10;;;;;;;8.00;6.97;;;;;;;12.42;55.44;99211.19;6976956;28;20305;-88
2023/05/04 02:50:32;;;;;;;9.43;7.67;;;;;;;12.04;57.23;99193.91;6977197;28;20199;-88
2023/05/04 02:53:53;;;;;;;8.13;7.33;;;;;;;11.81;56.30;99088.88;6976558;28;20225;-88
2023/05/04 02:57:15;;;;;;;10.47;7.60;;;;;;;12.07;57.40;99204.28;6976948;28;20291;-88
2023/05/04 03:00:36;;;;;;;8.73;7.20;;;;;;;12.05;57.09;99204.47;6976570;28;20348;-88
2023/05/04 03:03:59;;;;;;;8.43;7.53;;;;;;;11.60;58.36;99166.53;6975914;28;20358;-88
2023/05/04 03:07:26;;;;;;;9.93;7.77;;;;;;;11.34;59.35;99204.22;6975686;28;20284;-88
2023/05/04 03:10:47;;;;;;;8.87;7.80;;;;;;;11.97;58.34;99164.13;6976654;28;20198;-88
2023/05/04 03:14:09;;;;;;;10.07;8.27;;;;;;;12.25;56.80;99174.78;6975960;28;20206;-87
2023/05/04 03:17:30;;;;;;;12.20;7.93;;;;;;;12.26;56.28;99196.22;6976752;28;20256;-88
2023/05/04 03:20:53;;;;;;;8.40;7.53;;;;;;;12.48;56.45;99191.44;6976101;28;20202;-87
2023/05/04 03:24:17;;;;;;;8.93;8.03;;;;;;;12.50;56.29;99190.19;6975198;28;20317;-88
2023/05/04 03:27:39;;;;;;;9.30;8.37;;;;;;;11.81;58.18;99191.53;6975588;28;20285;-88
2023/05/04 03:31:01;;;;;;;9.77;8.50;;;;;;;12.06;58.16;99194.50;6975719;28;20432;-88
2023/05/04 03:34:22;;;;;;;10.67;8.20;;;;;;;11.95;57.57;99166.22;6975947;28;20290;-88
2023/05/04 03:37:45;;;;;;;9.80;8.80;;;;;;;12.17;57.39;99199.31;6978056;28;20759;-87
2023/05/04 03:41:07;;;;;;;8.90;8.00;;;;;;;12.17;56.97;99180.41;6978184;28;20290;-87
2023/05/04 03:44:28;;;;;;;9.53;8.63;;;;;;;12.13;56.89;99179.97;6978044;28;20765;-88
2023/05/04 03:47:50;;;;;;;10.40;8.47;;;;;;;12.50;56.36;99203.72;6978393;28;20289;-88
2023/05/04 03:51:11;;;;;;;10.73;9.50;;;;;;;12.12;56.58;99156.69;6977184;28;20283;-88
2023/05/04 03:54:34;;;;;;;11.50;8.97;;;;;;;12.04;57.62;99188.50;6977329;28;20227;-88
2023/05/04 03:57:56;;;;;;;9.43;8.47;;;;;;;12.24;57.01;99192.88;6977835;28;20667;-88
2023/05/04 04:01:17;;;;;;;10.70;9.03;;;;;;;12.50;56.31;99198.31;6977712;28;20561;-88
2023/05/04 04:04:39;;;;;;;11.17;9.20;;;;;;;12.17;56.40;99166.88;6969702;28;20222;-88
2023/05/04 04:08:07;;;;;;;10.23;9.13;;;;;;;12.09;56.08;99157.09;6972835;28;20237;-88
2023/05/04 04:11:30;;;;;;;10.37;8.40;;;;;;;11.99;56.46;99180.16;6950624;28;20186;-88
2023/05/04 04:14:51;;;;;;;13.47;9.20;;;;;;;11.87;57.72;99200.72;6950427;28;20854;-88
2023/05/04 04:18:13;;;;;;;9.73;8.77;;;;;;;11.93;57.14;99164.75;6949743;28;20204;-88
2023/05/04 04:21:34;;;;;;;12.13;9.20;;;;;;;11.75;56.66;99124.00;6963629;28;20289;-88
2023/05/04 04:24:56;;;;;;;14.73;9.53;;;;;;;11.79;57.35;99184.66;7004238;28;20288;-88
2023/05/04 04:28:19;;;;;;;14.80;9.37;;;;;;;11.85;57.76;99176.59;7004780;28;20205;-88
2023/05/04 04:31:41;;;;;;;10.00;9.00;;;;;;;12.18;57.15;99179.34;7004801;28;20217;-88
2023/05/04 04:35:03;;;;;;;11.27;9.43;;;;;;;12.35;56.10;99172.50;7004801;28;20257;-88
2023/05/04 04:38:25;;;;;;;12.13;9.63;;;;;;;12.46;56.22;99183.53;7004759;28;20208;-88
2023/05/04 04:41:47;;;;;;;10.03;9.03;;;;;;;12.40;56.11;99188.94;7004152;28;20212;-88
2023/05/04 04:45:10;;;;;;;16.23;11.47;;;;;;;11.85;57.25;99154.13;7004589;28;20223;-88
2023/05/04 04:48:32;;;;;;;13.27;9.57;;;;;;;12.22;56.86;99162.50;7004753;28;20320;-87
2023/05/04 04:51:54;;;;;;;12.17;10.00;;;;;;;12.35;57.04;99189.56;6987308;28;20286;-87
2023/05/04 04:55:31;;;;;;;9.97;8.97;;;;;;;12.42;56.21;99189.56;6949949;28;20226;-88
2023/05/04 04:58:52;;;;;;;11.83;9.20;;;;;;;12.50;56.41;99173.13;6892773;28;20209;-88
2023/05/04 05:02:15;;;;;;;10.53;9.10;;;;;;;12.69;55.91;99185.81;6894047;28;20330;-88
2023/05/04 05:05:37;;;;;;;11.53;9.43;;;;;;;12.13;56.57;99107.00;6906025;28;20261;-89
2023/05/04 05:08:58;;;;;;;14.47;10.43;;;;;;;12.73;56.36;99174.38;6906939;28;20261;-88
2023/05/04 05:12:20;;;;;;;11.47;9.63;;;;;;;12.60;55.50;99109.47;6897803;28;20383;-87
2023/05/04 05:15:41;;;;;;;10.80;9.73;;;;;;;12.95;56.24;99173.13;6896535;28;20255;-86
2023/05/04 05:19:04;;;;;;;10.50;9.40;;;;;;;13.14;56.24;99142.47;6911508;28;21030;-86
2023/05/04 05:22:26;;;;;;;11.23;9.70;;;;;;;12.85;56.50;99121.28;6920799;28;20292;-86
2023/05/04 05:25:47;;;;;;;12.83;9.27;;;;;;;13.55;55.61;99169.16;6916999;28;20244;-84
2023/05/04 05:29:09;;;;;;;10.33;9.23;;;;;;;13.82;54.45;99176.13;6896280;28;20232;-84
2023/05/04 05:32:30;;;;;;;11.97;9.10;;;;;;;14.01;54.04;99157.06;6895947;28;20350;-85
2023/05/04 05:35:53;;;;;;;11.53;8.83;;;;;;;14.24;53.45;99168.19;6929542;28;20369;-85
2023/05/04 05:39:15;;;;;;;10.10;8.63;;;;;;;15.19;52.10;99162.31;6953252;28;20352;-85
2023/05/04 05:42:36;;;;;;;11.80;8.37;;;;;;;15.52;50.64;99158.16;6951804;28;20238;-84
2023/05/04 05:45:58;;;;;;;12.17;9.20;;;;;;;15.78;50.82;99163.28;6952202;28;20307;-84
2023/05/04 05:49:19;;;;;;;9.50;8.60;;;;;;;15.95;50.14;99142.53;6952386;28;20675;-85
2023/05/04 05:52:42;;;;;;;9.37;8.30;;;;;;;16.15;50.27;99164.03;6951698;28;20236;-85
2023/05/04 05:56:04;;;;;;;10.43;8.50;;;;;;;15.55;50.69;99111.53;6952355;28;20380;-86
2023/05/04 05:59:25;;;;;;;11.47;9.57;;;;;;;16.61;49.40;99156.81;6952284;28;20307;-85
2023/05/04 06:02:47;;;;;;;10.33;8.43;;;;;;;17.06;48.06;99154.34;6951221;28;20318;-85
2023/05/04 06:06:09;;;;;;;10.53;9.53;;;;;;;18.17;44.72;99144.69;6955048;28;20265;-86
2023/05/04 06:09:31;;;;;;;11.17;9.80;;;;;;;17.71;44.58;99156.63;6951370;28;20202;-85
2023/05/04 06:12:53;;;;;;;11.87;9.50;;;;;;;17.27;45.79;99149.09;6951387;28;20296;-87
2023/05/04 06:16:14;;;;;;;10.60;9.10;;;;;;;18.12;44.55;99148.16;6950981;28;20279;-86
2023/05/04 06:19:37;;;;;;;14.17;9.60;;;;;;;17.88;43.34;99141.13;6951616;28;20270;-86
2023/05/04 06:22:59;;;;;;;10.80;9.70;;;;;;;17.82;45.05;99150.28;6950907;28;20227;-86
2023/05/04 06:26:22;;;;;;;10.23;8.90;;;;;;;18.67;43.58;99146.41;6951382;28;20227;-86
2023/05/04 06:29:44;;;;;;;11.43;9.70;;;;;;;18.38;43.07;99125.72;6951013;28;20217;-86
2023/05/04 06:33:05;;;;;;;10.43;9.27;;;;;;;17.88;44.90;99143.03;6950828;28;20211;-86
2023/05/04 06:36:27;;;;;;;12.17;10.90;;;;;;;16.70;46.91;99141.78;6968955;28;20215;-86
2023/05/04 06:39:48;;;;;;;11.23;10.07;;;;;;;17.01;46.79;99140.59;6973239;28;20240;-85
2023/05/04 06:43:11;;;;;;;9.77;8.77;;;;;;;16.88;47.64;99149.81;6958418;28;20318;-86
2023/05/04 06:46:35;;;;;;;10.00;9.00;;;;;;;17.62;46.17;99144.41;6950470;28;20238;-86
2023/05/04 06:49:57;;;;;;;10.53;9.43;;;;;;;17.71;46.28;99136.69;6956917;28;20268;-85
2023/05/04 06:53:19;;;;;;;11.13;9.93;;;;;;;17.83;45.58;99123.84;6953745;28;20199;-87
2023/05/04 06:56:41;;;;;;;10.47;8.90;;;;;;;18.13;44.83;99117.06;6967963;28;20223;-86
2023/05/04 07:00:04;;;;;;;11.33;9.27;;;;;;;17.99;45.44;99147.63;6977888;28;20209;-87
2023/05/04 07:03:26;;;;;;;9.20;8.27;;;;;;;18.96;43.96;99120.63;6977055;28;20320;-86
2023/05/04 07:06:48;;;;;;;9.93;8.97;;;;;;;18.46;43.46;99050.75;6977078;28;20307;-85
2023/05/04 07:10:10;;;;;;;10.73;9.47;;;;;;;18.97;44.57;99141.41;6977569;28;20240;-85
2023/05/04 07:13:32;;;;;;;9.37;8.40;;;;;;;19.62;42.47;99127.81;6976961;28;20225;-86
2023/05/04 07:16:55;;;;;;;9.67;8.53;;;;;;;20.03;41.92;99136.25;6979807;28;20227;-84
2023/05/04 07:20:16;;;;;;;9.53;7.67;;;;;;;20.33;41.43;99130.31;6953512;28;20216;-84
2023/05/04 07:23:38;;;;;;;9.40;8.40;;;;;;;19.65;42.83;99138.28;6950956;28;20701;-87
2023/05/04 07:26:59;;;;;;;11.13;8.13;;;;;;;20.33;41.54;99130.31;6950170;28;20291;-88
2023/05/04 07:30:21;;;;;;;10.23;8.57;;;;;;;19.64;42.29;99110.06;6976943;28;20206;-87
2023/05/04 07:33:44;;;;;;;9.17;8.27;;;;;;;19.99;40.82;99142.50;6977597;28;20743;-89
2023/05/04 07:37:06;;;;;;;9.63;8.57;;;;;;;19.75;42.45;99138.41;6977335;28;20361;-88
2023/05/04 07:40:27;;;;;;;9.17;7.33;;;;;;;20.11;41.86;99122.13;6978328;28;20264;-88
2023/05/04 07:43:49;;;;;;;8.83;7.93;;;;;;;19.95;42.64;99086.63;6973259;28;20359;-88
2023/05/04 07:47:11;;;;;;;8.93;8.10;;;;;;;20.44;41.39;99123.81;6950058;28;20267;-88
2023/05/04 07:50:34;;;;;;;7.93;7.13;;;;;;;21.04;38.98;99064.00;6950258;28;20242;-88
2023/05/04 07:53:56;;;;;;;9.77;8.00;;;;;;;20.77;40.59;99116.97;6949626;28;20213;-87
2023/05/04 07:57:17;;;;;;;8.37;7.57;;;;;;;20.26;40.45;99045.63;6949980;28;20667;-88
2023/05/04 08:00:39;;;;;;;9.60;7.73;;;;;;;20.57;41.10;99115.97;6950048;28;20207;-88
2023/05/04 08:04:00;;;;;;;8.27;7.47;;;;;;;21.06;39.69;99103.78;6950482;28;20290;-88
2023/05/04 08:07:23;;;;;;;8.80;7.90;;;;;;;21.33;39.88;99096.22;6954766;28;20764;-88
2023/05/04 08:10:45;;;;;;;8.50;7.77;;;;;;;21.76;38.41;99113.19;6952042;28;20244;-86
2023/05/04 08:14:07;;;;;;;7.60;6.90;;;;;;;22.25;37.73;99083.38;6959893;28;20221;-88
2023/05/04 08:17:28;;;;;;;7.50;6.80;;;;;;;21.15;39.05;99113.16;6963772;28;20202;-87
2023/05/04 08:20:50;;;;;;;6.17;5.57;;;;;;;23.04;37.05;99106.44;6956540;28;20305;-87
2023/05/04 08:24:13;;;;;;;6.40;5.50;;;;;;;22.75;36.11;99099.88;6952004;28;20571;-87
2023/05/04 08:27:34;;;;;;;6.33;5.33;;;;;;;23.66;34.71;99093.88;6951557;28;20241;-87
2023/05/04 08:30:56;;;;;;;5.10;4.70;;;;;;;23.66;32.83;99079.31;6967847;28;20268;-87
2023/05/04 08:34:17;;;;;;;5.40;4.90;;;;;;;23.57;31.25;99046.03;6954682;28;20227;-87
2023/05/04 08:37:40;;;;;;;5.30;4.73;;;;;;;23.66;31.29;99000.28;6951887;28;20263;-86
2023/05/04 08:41:07;;;;;;;10.03;4.87;;;;;;;24.47;30.31;99075.75;6960272;28;20209;-86
2023/05/04 08:44:29;;;;;;;5.40;4.90;;;;;;;24.93;29.85;99082.56;6963603;28;20291;-86
2023/05/04 08:47:55;;;;;;;5.00;4.50;;;;;;;24.78;30.64;99081.88;6956591;28;20205;-87
2023/05/04 08:51:17;;;;;;;4.50;4.10;;;;;;;25.18;28.99;99062.16;6970573;28;20334;-86
2023/05/04 08:54:42;;;;;;;4.17;3.80;;;;;;;25.53;28.72;99057.06;6955900;28;20224;-86
2023/05/04 08:58:07;;;;;;;5.00;4.50;;;;;;;24.01;28.67;99060.66;6989716;28;20199;-86
2023/05/04 09:01:30;;;;;;;5.53;4.37;;;;;;;23.68;30.19;99038.53;6958018;28;20198;-88
2023/05/04 09:04:52;;;;;;;4.20;3.80;;;;;;;23.79;31.63;99059.41;6953993;28;20703;-88
2023/05/04 09:08:14;;;;;;;5.30;4.40;;;;;;;24.11;30.49;99068.03;6984626;28;20279;-87
2023/05/04 09:11:36;;;;;;;4.77;4.37;;;;;;;23.74;30.78;99018.97;6977571;28;20298;-88
2023/05/04 09:15:00;;;;;;;4.30;4.00;;;;;;;25.16;28.82;99036.78;6954359;28;20236;-87
2023/05/04 09:18:22;;;;;;;4.90;4.50;;;;;;;24.40;29.20;99028.41;6954408;28;20207;-87
2023/05/04 09:21:45;;;;;;;5.60;4.97;;;;;;;23.31;30.17;98991.41;6954248;28;20682;-88
2023/05/04 09:25:09;;;;;;;4.90;4.50;;;;;;;23.60;31.29;99044.66;6971100;28;20367;-86
2023/05/04 09:28:35;;;;;;;5.13;4.30;;;;;;;24.44;28.50;98993.66;6965004;28;20272;-86
2023/05/04 09:31:58;;;;;;;4.70;4.30;;;;;;;25.96;28.86;99027.50;6956032;28;20230;-88
2023/05/04 09:35:27;;;;;;;4.87;4.47;;;;;;;24.77;28.46;99039.66;6974050;28;20710;-87
2023/05/04 09:38:49;;;;;;;4.23;3.40;;;;;;;25.52;28.73;99035.25;6954720;28;20195;-86
2023/05/04 09:42:17;;;;;;;4.33;3.93;;;;;;;25.84;27.05;99022.38;6965472;28;20294;-87
2023/05/04 09:45:40;;;;;;;4.50;4.10;;;;;;;25.58;27.22;99025.78;6980969;28;20236;-86
2023/05/04 09:49:02;;;;;;;3.73;3.43;;;;;;;24.69;29.10;98954.81;6968781;28;20218;-87
2023/05/04 09:52:25;;;;;;;3.90;3.60;;;;;;;26.45;26.43;99020.34;6953547;28;20211;-87
2023/05/04 09:55:47;;;;;;;4.37;4.00;;;;;;;25.97;26.24;99018.06;6953857;28;20315;-87
2023/05/04 09:59:09;;;;;;;4.27;3.90;;;;;;;26.62;25.91;99005.94;6953467;28;20234;-88
2023/05/04 10:02:32;;;;;;;7.97;4.37;;;;;;;26.71;24.86;99016.00;6953964;28;20213;-88
2023/05/04 10:05:55;;;;;;;4.30;3.90;;;;;;;26.09;25.37;99007.38;6952862;28;20231;-84
2023/05/04 10:09:16;;;;;;;4.00;3.60;;;;;;;26.45;25.76;99012.03;6970040;28;20264;-84
2023/05/04 10:12:38;;;;;;;4.90;3.13;;;;;;;26.31;24.46;98985.47;6978754;28;20273;-86
2023/05/04 10:16:11;;;;;;;3.97;3.67;;;;;;;26.78;24.53;98979.66;6979556;28;20379;-87
2023/05/04 10:19:46;;;;;;;5.17;3.73;;;;;;;26.39;23.77;99010.47;6980629;28;20193;-87
2023/05/04 10:23:22;;;;;;;4.20;3.70;;;;;;;25.80;25.28;98988.19;6973194;28;20705;-85
2023/05/04 10:27:02;;;;;;;5.53;4.07;;;;;;;24.52;27.14;99004.03;6980653;28;20294;-85
2023/05/04 10:30:24;;;;;;;5.77;3.80;;;;;;;25.51;25.91;99000.47;6980131;28;20277;-85
2023/05/04 10:33:45;;;;;;;3.87;3.50;;;;;;;26.53;24.25;99003.03;6979666;28;20313;-86
2023/05/04 10:37:16;;;;;;;4.17;3.60;;;;;;;28.35;22.46;98985.88;6979873;28;20282;-86
2023/05/04 10:40:40;;;;;;;3.63;3.33;;;;;;;27.98;22.77;98955.75;6961710;28;20641;-86
2023/05/04 10:44:03;;;;;;;6.43;3.77;;;;;;;27.85;22.68;98987.09;6953819;28;20223;-86
2023/05/04 10:47:29;;;;;;;3.73;3.43;;;;;;;27.41;24.22;98970.34;6974179;28;20297;-85
2023/05/04 10:50:51;;;;;;;4.03;3.60;;;;;;;28.09;23.21;98950.75;6979906;28;20583;-86
2023/05/04 10:54:17;;;;;;;4.10;3.80;;;;;;;27.98;23.21;98946.59;6978977;28;20238;-86
2023/05/04 10:57:49;;;;;;;3.60;3.30;;;;;;;28.30;23.70;98960.22;6980073;28;20189;-86
2023/05/04 11:01:11;;;;;;;4.93;3.70;;;;;;;26.64;24.29;98946.44;6978577;28;20192;-86
2023/05/04 11:04:33;;;;;;;4.47;4.07;;;;;;;26.83;24.68;98947.16;6979146;28;20236;-86
2023/05/04 11:07:55;;;;;;;3.87;3.57;;;;;;;27.79;24.33;98945.97;6983741;28;20247;-86
2023/05/04 11:11:18;;;;;;;4.13;3.83;;;;;;;27.34;23.50;98941.41;7000181;28;20202;-87
2023/05/04 11:14:42;;;;;;;3.70;3.40;;;;;;;26.84;24.55;98946.03;6982996;28;20257;-86
2023/05/04 11:18:03;;;;;;;3.53;3.23;;;;;;;27.67;23.10;98935.38;6964665;28;20569;-86
2023/05/04 11:21:25;;;;;;;3.53;3.23;;;;;;;27.93;22.78;98941.19;6950838;28;20242;-87
2023/05/04 11:24:48;;;;;;;3.40;3.17;;;;;;;28.43;21.66;98937.16;6950759;28;20230;-86
2023/05/04 11:28:09;;;;;;;4.83;3.40;;;;;;;27.72;21.95;98935.25;6953326;28;20224;-86
2023/05/04 11:31:32;;;;;;;6.70;3.40;;;;;;;28.44;22.15;98947.13;6951046;28;20226;-86
2023/05/04 11:34:54;;;;;;;4.00;3.50;;;;;;;28.79;21.11;98935.06;6950814;28;20306;-85
2023/05/04 11:38:18;;;;;;;3.53;3.23;;;;;;;27.51;23.24;98897.28;6950095;28;20294;-86
2023/05/04 11:41:42;;;;;;;3.30;3.00;;;;;;;28.40;22.07;98910.03;6951864;28;20703;-86
2023/05/04 11:45:04;;;;;;;6.33;3.80;;;;;;;28.93;22.94;98916.31;6950847;28;20256;-86
2023/05/04 11:48:27;;;;;;;3.90;3.47;;;;;;;28.28;22.27;98913.38;6950234;28;20211;-85
2023/05/04 11:51:49;;;;;;;3.80;3.40;;;;;;;27.88;21.64;98822.13;6949673;28;20199;-86
2023/05/04 11:55:12;;;;;;;4.70;4.20;;;;;;;28.50;22.45;98901.47;6949970;28;20318;-85
2023/05/04 11:58:34;;;;;;;6.27;4.37;;;;;;;28.54;22.50;98883.84;6950553;28;20296;-86
2023/05/04 12:01:56;;;;;;;6.03;4.97;;;;;;;29.04;21.61;98895.50;6949746;28;21058;-85
2023/05/04 12:05:18;;;;;;;5.10;3.70;;;;;;;28.61;23.19;98892.53;6949616;28;20235;-87
2023/05/04 12:08:42;;;;;;;4.40;4.03;;;;;;;28.60;23.28;98882.56;6950107;28;20229;-87
2023/05/04 12:12:04;;;;;;;6.17;4.13;;;;;;;28.93;21.81;98892.16;6958760;28;20234;-89
2023/05/04 12:15:30;;;;;;;5.33;4.40;;;;;;;28.79;21.90;98888.66;6977714;28;20321;-86
2023/05/04 12:19:01;;;;;;;4.53;4.03;;;;;;;27.10;23.28;98885.44;6970263;28;20213;-84
2023/05/04 12:22:28;;;;;;;9.40;5.90;;;;;;;28.07;24.25;98884.53;6970592;28;20214;-84
2023/05/04 12:25:49;;;;;;;10.87;5.83;;;;;;;28.86;22.89;98886.28;6977105;28;20286;-83
2023/05/04 12:29:14;;;;;;;5.00;4.20;;;;;;;28.83;23.17;98878.56;6970612;28;20208;-84
2023/05/04 12:32:35;;;;;;;5.57;5.00;;;;;;;28.39;22.58;98864.88;6963497;28;20217;-87
2023/05/04 12:35:58;;;;;;;6.00;4.77;;;;;;;29.07;23.46;98879.00;6970285;28;20244;-85
2023/05/04 12:39:21;;;;;;;6.13;4.70;;;;;;;28.94;23.07;98882.69;6977584;28;20251;-84
2023/05/04 12:42:43;;;;;;;5.57;4.30;;;;;;;29.12;22.17;98828.88;6965699;28;20205;-82
2023/05/04 12:46:05;;;;;;;4.50;4.10;;;;;;;29.63;22.50;98803.91;6962327;28;20573;-81
2023/05/04 12:49:26;;;;;;;6.93;6.03;;;;;;;26.73;25.28;98874.63;6967780;28;20198;-81
2023/05/04 12:52:48;;;;;;;5.80;5.30;;;;;;;25.71;26.78;98875.91;6950787;28;20253;-84
2023/05/04 12:56:11;;;;;;;7.87;6.00;;;;;;;25.64;26.30;98873.53;6951255;28;20647;-83
2023/05/04 12:59:32;;;;;;;5.70;5.10;;;;;;;27.24;25.83;98864.94;6961273;28;20227;-84
2023/05/04 13:02:54;;;;;;;6.30;5.00;;;;;;;28.09;25.05;98871.19;6961056;28;20199;-84
2023/05/04 13:06:16;;;;;;;7.00;4.93;;;;;;;29.12;23.92;98872.47;6988918;28;20326;-84
2023/05/04 13:09:37;;;;;;;5.93;5.20;;;;;;;28.69;24.16;98857.63;7003992;28;20349;-84
2023/05/04 13:13:00;;;;;;;5.23;4.83;;;;;;;29.32;23.06;98785.75;6989670;28;20204;-85
2023/05/04 13:16:21;;;;;;;7.70;4.70;;;;;;;29.74;23.19;98841.34;6976213;28;20230;-85
2023/05/04 13:19:43;;;;;;;5.43;4.53;;;;;;;28.83;24.77;98836.94;6975759;28;20302;-85
2023/05/04 13:23:04;;;;;;;6.00;4.80;;;;;;;29.51;24.11;98828.72;6965198;28;20298;-85
2023/05/04 13:26:26;;;;;;;6.50;5.40;;;;;;;29.28;23.65;98810.59;6973733;28;20629;-85
2023/05/04 13:29:49;;;;;;;5.60;5.10;;;;;;;29.80;23.33;98828.91;6980049;28;20219;-84
2023/05/04 13:33:10;;;;;;;5.10;4.27;;;;;;;29.87;23.67;98809.75;6964385;28;20231;-85
2023/05/04 13:36:32;;;;;;;5.97;5.47;;;;;;;27.84;24.45;98769.28;6951770;28;20355;-84
2023/05/04 13:39:53;;;;;;;5.90;5.40;;;;;;;28.43;25.30;98726.34;6955851;28;20236;-85
2023/05/04 13:43:15;;;;;;;6.20;5.60;;;;;;;29.04;23.65;98793.56;6980339;28;20220;-84
2023/05/04 13:46:38;;;;;;;5.77;5.20;;;;;;;29.20;23.62;98766.13;6980153;28;20377;-83
2023/05/04 13:50:00;;;;;;;7.00;6.30;;;;;;;28.88;23.23;98747.13;6960723;28;20286;-83
2023/05/04 13:53:23;;;;;;;5.83;4.50;;;;;;;29.16;24.24;98782.66;6951828;28;20205;-84
2023/05/04 13:56:44;;;;;;;9.03;6.23;;;;;;;28.46;23.61;98778.38;6953014;28;20221;-83
2023/05/04 14:00:08;;;;;;;5.57;5.07;;;;;;;28.81;24.01;98766.22;6951510;28;20214;-84
2023/05/04 14:03:31;;;;;;;6.27;5.20;;;;;;;27.38;25.75;98766.03;6951881;28;20584;-84
2023/05/04 14:06:54;;;;;;;5.67;5.17;;;;;;;28.55;24.69;98741.19;6952002;28;20317;-84
2023/05/04 14:10:15;;;;;;;5.50;5.00;;;;;;;28.70;24.33;98710.22;6952063;28;20241;-83
2023/05/04 14:13:37;;;;;;;5.13;4.73;;;;;;;28.98;23.84;98755.19;6954235;28;20643;-84
2023/05/04 14:16:58;;;;;;;5.43;5.00;;;;;;;28.58;23.21;98736.97;6969116;28;20239;-84
2023/05/04 14:20:21;;;;;;;6.50;4.70;;;;;;;27.92;24.61;98717.81;6952325;28;20239;-84
2023/05/04 14:23:43;;;;;;;5.33;4.53;;;;;;;28.69;24.20;98718.88;6951361;28;20710;-82
2023/05/04 14:27:05;;;;;;;5.50;4.40;;;;;;;28.98;24.95;98742.13;6951891;28;20240;-82
2023/05/04 14:30:26;;;;;;;4.53;4.13;;;;;;;29.42;23.49;98722.31;6961587;28;20312;-82
2023/05/04 14:33:48;;;;;;;4.37;3.83;;;;;;;29.52;23.10;98712.81;6979061;28;20242;-82
2023/05/04 14:37:10;;;;;;;4.60;4.20;;;;;;;28.25;23.70;98700.47;6977256;28;20358;-82
2023/05/04 14:40:32;;;;;;;6.07;5.03;;;;;;;28.88;23.53;98714.66;6966833;28;20270;-83
2023/05/04 14:43:53;;;;;;;5.80;4.43;;;;;;;28.99;24.23;98718.78;6951408;28;20261;-82
2023/05/04 14:47:15;;;;;;;5.83;4.70;;;;;;;28.47;23.95;98711.50;6952765;28;20331;-83
2023/05/04 14:50:36;;;;;;;5.63;4.27;;;;;;;29.34;23.25;98705.66;6978151;28;20721;-82
2023/05/04 14:53:59;;;;;;;5.63;4.50;;;;;;;28.24;23.41;98646.16;6977862;28;20688;-82
2023/05/04 14:57:21;;;;;;;4.57;4.17;;;;;;;29.14;23.21;98700.78;6978455;28;20205;-83
2023/05/04 15:00:44;;;;;;;4.50;4.10;;;;;;;29.12;23.29;98691.97;6978028;28;20202;-83
2023/05/04 15:04:05;;;;;;;4.47;4.07;;;;;;;28.56;24.26;98695.69;6977927;28;20674;-83
2023/05/04 15:07:27;;;;;;;5.33;4.60;;;;;;;29.08;22.88;98672.38;6978213;28;20271;-83
2023/05/04 15:10:49;;;;;;;6.07;4.00;;;;;;;29.58;22.11;98669.84;6978359;28;20353;-83
2023/05/04 15:14:11;;;;;;;5.47;4.37;;;;;;;29.67;22.14;98673.44;6977771;28;20253;-83
2023/05/04 15:17:32;;;;;;;5.03;4.50;;;;;;;28.70;22.67;98688.03;6979089;28;20270;-83
2023/05/04 15:20:54;;;;;;;4.60;4.20;;;;;;;27.19;24.27;98623.38;6955322;28;20350;-83
2023/05/04 15:24:16;;;;;;;5.63;4.70;;;;;;;26.80;24.95;98684.09;6953305;28;20376;-83
2023/05/04 15:27:39;;;;;;;4.37;4.03;;;;;;;27.76;24.62;98645.31;6950557;28;20269;-85
2023/05/04 15:31:02;;;;;;;5.60;4.23;;;;;;;28.09;24.69;98671.56;6954534;28;20378;-84
2023/05/04 15:34:23;;;;;;;4.30;3.90;;;;;;;28.58;23.66;98665.66;6976983;28;20227;-82
2023/05/04 15:37:45;;;;;;;4.23;3.50;;;;;;;28.79;23.96;98669.41;6978166;28;20294;-82
2023/05/04 15:41:06;;;;;;;6.03;4.30;;;;;;;28.48;23.15;98640.19;6977641;28;20211;-82
2023/05/04 15:44:30;;;;;;;6.60;4.43;;;;;;;27.95;23.58;98658.97;6977302;28;20319;-83
2023/05/04 15:47:52;;;;;;;5.17;4.77;;;;;;;26.57;25.02;98654.78;6963635;28;20236;-83
2023/05/04 15:51:14;;;;;;;5.37;4.77;;;;;;;26.98;24.95;98670.09;6950615;28;20207;-83